Time;durP1;ratioP1;P1;durP2;ratioP2;P2;SDS_P1;SDS_P2;PMS_P1;PMS_P2;Temp;Humidity;BMP_temperature;BMP_pressure;BME280_temperature;BME280_humidity;BME280_pressure;Samples;Min_cycle;Max_cycle;Signal;HPM_P1;HPM_P2
2022/03/02 00:01:12;;;;;;;17.25;5.80;;;5.80;99.90;;;;;;5034166;28;20022;-81
2022/03/02 00:03:39;;;;;;;12.23;5.60;;;5.60;99.90;;;;;;5000049;28;20030;-81
2022/03/02 00:06:05;;;;;;;12.73;5.03;;;5.50;99.90;;;;;;4999900;28;20022;-80
2022/03/02 00:08:32;;;;;;;14.48;6.47;;;5.40;99.90;;;;;;5016355;28;20095;-81
2022/03/02 00:10:59;;;;;;;15.55;5.70;;;5.30;99.90;;;;;;5033943;28;20032;-80
2022/03/02 00:13:25;;;;;;;13.15;5.38;;;5.40;99.90;;;;;;5033987;28;20083;-80
2022/03/02 00:15:52;;;;;;;12.80;4.88;;;5.30;99.90;;;;;;5034118;28;20059;-80
2022/03/02 00:18:18;;;;;;;10.07;4.78;;;5.30;99.90;;;;;;5033937;28;20047;-80
2022/03/02 00:20:45;;;;;;;11.25;4.40;;;5.40;99.90;;;;;;5016488;28;20104;-81
2022/03/02 00:23:12;;;;;;;9.50;4.32;;;5.40;99.90;;;;;;5034128;28;20108;-80
2022/03/02 00:25:38;;;;;;;7.07;3.60;;;5.50;99.90;;;;;;4999644;28;20028;-81
2022/03/02 00:28:05;;;;;;;8.73;3.75;;;5.50;99.90;;;;;;4999671;28;20033;-81
2022/03/02 00:30:32;;;;;;;7.47;3.63;;;5.50;99.90;;;;;;4999638;28;20030;-80
2022/03/02 00:33:02;;;;;;;12.05;4.63;;;5.50;99.90;;;;;;4999598;28;20116;-80
2022/03/02 00:35:28;;;;;;;10.23;4.35;;;5.50;99.90;;;;;;5015900;28;20090;-81
2022/03/02 00:37:55;;;;;;;7.30;3.58;;;5.50;99.90;;;;;;5016155;28;20488;-81
2022/03/02 00:40:22;;;;;;;10.20;3.40;;;5.50;99.90;;;;;;5016107;28;20029;-80
2022/03/02 00:42:49;;;;;;;7.57;3.05;;;5.60;99.90;;;;;;5015965;28;20389;-80
2022/03/02 00:45:15;;;;;;;10.40;4.07;;;5.60;99.90;;;;;;5015743;28;20073;-80
2022/03/02 00:47:42;;;;;;;6.72;3.67;;;5.60;99.90;;;;;;5015776;28;20040;-81
2022/03/02 00:50:13;;;;;;;12.90;4.32;;;5.60;99.90;;;;;;4999392;28;20029;-81
2022/03/02 00:52:41;;;;;;;7.35;2.92;;;5.60;99.90;;;;;;4999044;28;20030;-80
2022/03/02 00:55:08;;;;;;;6.43;3.80;;;5.60;99.90;;;;;;4999350;28;20112;-81
2022/03/02 00:57:35;;;;;;;10.45;4.38;;;5.60;99.90;;;;;;4999320;28;20056;-80
2022/03/02 01:00:03;;;;;;;8.32;4.28;;;5.60;99.90;;;;;;5015721;28;20053;-81
2022/03/02 01:02:30;;;;;;;6.53;3.58;;;5.60;99.90;;;;;;5033417;28;20494;-81
2022/03/02 01:04:57;;;;;;;10.10;4.18;;;5.60;99.90;;;;;;5033307;28;20028;-81
2022/03/02 01:07:24;;;;;;;8.23;4.22;;;5.50;99.90;;;;;;5033077;28;20049;-80
2022/03/02 01:09:50;;;;;;;10.45;4.20;;;5.60;99.90;;;;;;5015574;28;20445;-80
2022/03/02 01:12:17;;;;;;;9.73;4.20;;;5.50;99.90;;;;;;5016256;28;20529;-81
2022/03/02 01:14:44;;;;;;;6.93;3.38;;;5.40;99.90;;;;;;5015604;28;20040;-80
2022/03/02 01:17:10;;;;;;;8.57;4.50;;;5.10;99.90;;;;;;5015667;28;20531;-80
2022/03/02 01:19:38;;;;;;;10.02;4.70;;;5.10;99.90;;;;;;4999243;28;20056;-80
2022/03/02 01:22:06;;;;;;;10.05;4.15;;;5.10;99.90;;;;;;4999120;28;20033;-80
2022/03/02 01:24:33;;;;;;;11.35;4.80;;;5.10;99.90;;;;;;4999233;28;20022;-80
2022/03/02 01:27:01;;;;;;;9.60;3.40;;;5.10;99.90;;;;;;5015846;28;20025;-80
2022/03/02 01:29:33;;;;;;;7.80;3.65;;;5.20;99.90;;;;;;5015424;28;20498;-80
2022/03/02 01:32:03;;;;;;;9.45;3.80;;;5.10;99.90;;;;;;4999178;28;20056;-80
2022/03/02 01:34:30;;;;;;;11.32;3.38;;;5.10;99.90;;;;;;5015612;28;20028;-80
2022/03/02 01:36:57;;;;;;;8.25;3.85;;;5.20;99.90;;;;;;5015393;28;20022;-80
2022/03/02 01:39:24;;;;;;;7.65;3.60;;;5.20;99.90;;;;;;5015405;28;20057;-80
2022/03/02 01:41:50;;;;;;;8.55;3.88;;;5.20;99.90;;;;;;5016088;28;20029;-80
2022/03/02 01:44:17;;;;;;;8.73;3.53;;;5.30;99.90;;;;;;5003382;28;20042;-80
2022/03/02 01:46:45;;;;;;;11.00;3.92;;;5.20;99.90;;;;;;4995633;28;20030;-81
2022/03/02 01:49:11;;;;;;;8.82;3.97;;;5.20;99.90;;;;;;4995718;28;20106;-80
2022/03/02 01:51:38;;;;;;;7.03;3.38;;;5.30;99.90;;;;;;4995650;28;20153;-80
2022/03/02 01:54:06;;;;;;;6.80;3.10;;;5.30;99.90;;;;;;4995497;28;20026;-80
2022/03/02 01:56:34;;;;;;;5.38;3.33;;;5.30;99.90;;;;;;5013161;28;20046;-81
2022/03/02 01:59:02;;;;;;;7.45;3.25;;;5.30;99.90;;;;;;4979223;28;20115;-80
2022/03/02 02:01:30;;;;;;;7.57;3.40;;;5.20;99.90;;;;;;4995354;28;20041;-80
2022/03/02 02:03:56;;;;;;;8.82;3.80;;;5.20;99.90;;;;;;5014498;28;20026;-80
2022/03/02 02:06:23;;;;;;;8.30;3.28;;;5.30;99.90;;;;;;5016448;28;20021;-81
2022/03/02 02:08:52;;;;;;;6.40;3.28;;;5.30;99.90;;;;;;4982703;28;20121;-80
2022/03/02 02:11:19;;;;;;;6.75;3.63;;;5.30;99.90;;;;;;4982624;28;20029;-80
2022/03/02 02:13:46;;;;;;;14.15;3.25;;;5.30;99.90;;;;;;4982629;28;20114;-80
2022/03/02 02:16:14;;;;;;;5.93;3.13;;;5.30;99.90;;;;;;4982755;28;20117;-81
2022/03/02 02:18:40;;;;;;;7.57;3.20;;;5.30;99.90;;;;;;4998639;28;20022;-82
2022/03/02 02:21:09;;;;;;;10.32;3.28;;;5.30;99.90;;;;;;4982485;28;20030;-80
2022/03/02 02:23:37;;;;;;;9.13;3.85;;;5.30;99.90;;;;;;4982387;28;20050;-80
2022/03/02 02:26:06;;;;;;;7.80;2.83;;;5.30;99.90;;;;;;4998571;28;20080;-80
2022/03/02 02:28:34;;;;;;;6.72;3.15;;;5.30;99.90;;;;;;4998364;28;20093;-80
2022/03/02 02:31:02;;;;;;;5.97;3.15;;;5.20;99.90;;;;;;4998587;28;20029;-80
2022/03/02 02:33:30;;;;;;;7.03;3.60;;;5.30;99.90;;;;;;5016020;28;20101;-80
2022/03/02 02:36:00;;;;;;;9.15;3.33;;;5.30;99.90;;;;;;4998450;28;20026;-80
2022/03/02 02:38:26;;;;;;;7.03;3.60;;;5.20;99.90;;;;;;4998394;28;20037;-81
2022/03/02 02:40:53;;;;;;;7.57;3.20;;;5.20;99.90;;;;;;4998265;28;20061;-80
2022/03/02 02:43:26;;;;;;;7.85;3.58;;;5.20;99.90;;;;;;4998103;28;20073;-80
2022/03/02 02:45:54;;;;;;;10.27;3.17;;;5.10;99.90;;;;;;4998389;28;20037;-80
2022/03/02 02:48:21;;;;;;;6.18;3.60;;;5.00;99.90;;;;;;4998081;28;20133;-80
2022/03/02 02:50:48;;;;;;;8.32;3.45;;;4.80;99.90;;;;;;4998002;28;20030;-80
2022/03/02 02:53:16;;;;;;;9.50;3.20;;;4.80;99.90;;;;;;4981999;28;20022;-80
2022/03/02 02:55:44;;;;;;;7.78;3.28;;;4.70;99.90;;;;;;5015717;28;20061;-80
2022/03/02 02:58:12;;;;;;;6.60;3.17;;;4.70;99.90;;;;;;5015601;28;20050;-80
2022/03/02 03:00:43;;;;;;;12.35;3.53;;;4.70;99.90;;;;;;5015408;28;20033;-80
2022/03/02 03:03:10;;;;;;;7.13;3.10;;;4.70;99.90;;;;;;4997950;28;20113;-80
2022/03/02 03:05:37;;;;;;;12.88;3.53;;;4.80;99.90;;;;;;4981685;28;20037;-80
2022/03/02 03:08:07;;;;;;;7.60;3.72;;;4.80;99.90;;;;;;4981486;28;20042;-80
2022/03/02 03:10:34;;;;;;;10.70;3.38;;;4.80;99.90;;;;;;4997799;28;20026;-80
2022/03/02 03:13:02;;;;;;;10.65;3.80;;;4.80;99.90;;;;;;4981424;28;20030;-80
2022/03/02 03:15:30;;;;;;;9.77;3.90;;;4.80;99.90;;;;;;5013529;28;20483;-80
2022/03/02 03:17:56;;;;;;;5.47;2.78;;;4.90;99.90;;;;;;4981391;28;20022;-80
2022/03/02 03:20:26;;;;;;;9.30;3.40;;;4.80;99.90;;;;;;4981396;28;20034;-80
2022/03/02 03:22:55;;;;;;;9.13;4.07;;;4.80;99.90;;;;;;4997667;28;20022;-80
2022/03/02 03:25:23;;;;;;;6.70;3.63;;;4.80;99.90;;;;;;4981302;28;20034;-80
2022/03/02 03:27:51;;;;;;;10.02;4.00;;;4.80;99.90;;;;;;5015296;28;20450;-80
2022/03/02 03:30:20;;;;;;;12.23;3.97;;;4.80;99.90;;;;;;5014958;28;20080;-80
2022/03/02 03:33:05;;;;;;;8.52;3.40;;;4.80;99.90;;;;;;5014907;28;20026;-81
2022/03/02 03:35:32;;;;;;;6.45;3.05;;;4.80;99.90;;;;;;5015202;28;20029;-80
2022/03/02 03:37:59;;;;;;;9.93;3.92;;;4.80;99.90;;;;;;4997231;28;20028;-80
2022/03/02 03:40:26;;;;;;;20.05;4.05;;;4.80;99.90;;;;;;5015047;28;20482;-80
2022/03/02 03:42:54;;;;;;;9.70;3.42;;;4.90;99.90;;;;;;5014609;28;20053;-80
2022/03/02 03:45:22;;;;;;;9.02;3.53;;;4.80;99.90;;;;;;5014707;28;20101;-80
2022/03/02 03:47:48;;;;;;;10.70;3.42;;;4.80;99.90;;;;;;4980887;28;20114;-80
2022/03/02 03:50:16;;;;;;;10.43;3.65;;;4.80;99.90;;;;;;4997018;28;20475;-80
2022/03/02 03:52:43;;;;;;;7.05;3.30;;;4.80;99.90;;;;;;4980825;28;20048;-82
2022/03/02 03:55:12;;;;;;;17.75;4.78;;;4.80;99.90;;;;;;4980715;28;20116;-82
2022/03/02 03:57:40;;;;;;;14.75;4.55;;;4.80;99.90;;;;;;4980700;28;20022;-82
2022/03/02 04:00:11;;;;;;;15.18;4.80;;;4.90;99.90;;;;;;4996788;28;20033;-82
2022/03/02 04:02:38;;;;;;;11.63;3.65;;;4.90;99.90;;;;;;4996806;28;20029;-80
2022/03/02 04:05:06;;;;;;;12.07;4.15;;;5.00;99.90;;;;;;4980556;28;20026;-81
2022/03/02 04:07:32;;;;;;;8.23;3.58;;;5.10;99.90;;;;;;4980524;28;20026;-80
2022/03/02 04:09:59;;;;;;;8.63;3.50;;;5.10;99.90;;;;;;5012960;28;20407;-80
2022/03/02 04:12:26;;;;;;;9.55;3.30;;;5.10;99.90;;;;;;5012989;28;20090;-80
2022/03/02 04:14:52;;;;;;;13.70;4.28;;;5.10;99.90;;;;;;4980426;28;20057;-80
2022/03/02 04:17:19;;;;;;;7.00;3.40;;;5.10;99.90;;;;;;4996507;28;20033;-80
2022/03/02 04:19:45;;;;;;;7.40;3.25;;;5.20;99.90;;;;;;4996733;28;20081;-80
2022/03/02 04:22:12;;;;;;;6.03;2.83;;;5.20;99.90;;;;;;4980448;28;20137;-80
2022/03/02 04:24:38;;;;;;;9.52;3.55;;;5.30;99.90;;;;;;4996630;28;20022;-80
2022/03/02 04:27:06;;;;;;;7.07;3.25;;;5.30;99.90;;;;;;4979619;28;20033;-80
2022/03/02 04:29:35;;;;;;;7.38;3.97;;;5.30;99.90;;;;;;5013986;28;20042;-80
2022/03/02 04:32:02;;;;;;;18.70;5.97;;;5.30;99.90;;;;;;4980250;28;20029;-80
2022/03/02 04:34:35;;;;;;;8.80;3.47;;;5.40;99.90;;;;;;4980210;28;20390;-80
2022/03/02 04:37:02;;;;;;;9.10;3.03;;;5.40;99.90;;;;;;4980126;28;20426;-82
2022/03/02 04:39:32;;;;;;;13.40;3.60;;;5.40;99.90;;;;;;4980287;28;20037;-80
2022/03/02 04:41:59;;;;;;;11.27;3.00;;;5.40;99.90;;;;;;4980089;28;20482;-80
2022/03/02 04:44:26;;;;;;;11.32;3.47;;;5.40;99.90;;;;;;5008863;28;20135;-80
2022/03/02 04:46:55;;;;;;;13.13;3.88;;;5.40;99.90;;;;;;5015784;28;20033;-80
2022/03/02 04:49:22;;;;;;;13.13;4.68;;;5.40;99.90;;;;;;5015894;28;20112;-80
2022/03/02 04:51:49;;;;;;;8.70;3.85;;;5.40;99.90;;;;;;5015640;28;20501;-80
2022/03/02 04:57:05;;;;;;;12.40;3.22;;;5.30;99.90;;;;;;5015697;28;20026;-80
2022/03/02 04:59:32;;;;;;;19.20;5.13;;;5.30;99.90;;;;;;5015608;28;20025;-80
2022/03/02 05:02:02;;;;;;;12.38;4.07;;;5.30;99.90;;;;;;5015780;28;20118;-80
2022/03/02 05:04:28;;;;;;;6.28;3.03;;;5.30;99.90;;;;;;5015790;28;20390;-79
2022/03/02 05:06:55;;;;;;;6.47;3.20;;;5.40;99.90;;;;;;4999234;28;20026;-79
2022/03/02 05:09:22;;;;;;;12.73;3.03;;;5.50;99.90;;;;;;5015640;28;20060;-80
2022/03/02 05:11:49;;;;;;;10.57;3.53;;;5.50;99.90;;;;;;5015703;28;20033;-80
2022/03/02 05:14:15;;;;;;;7.63;3.88;;;5.50;99.90;;;;;;5033103;28;20359;-80
2022/03/02 05:16:42;;;;;;;10.82;3.90;;;5.50;99.90;;;;;;5015691;28;20052;-80
2022/03/02 05:19:08;;;;;;;6.00;2.88;;;5.60;99.90;;;;;;5033211;28;20048;-80
2022/03/02 05:21:37;;;;;;;7.70;3.05;;;5.60;99.90;;;;;;4999179;28;20470;-81
2022/03/02 05:24:05;;;;;;;9.85;2.75;;;5.60;99.90;;;;;;5015388;28;20085;-82
2022/03/02 05:26:31;;;;;;;5.63;2.33;;;5.60;99.90;;;;;;5015422;28;20033;-82
2022/03/02 05:28:58;;;;;;;5.53;2.60;;;5.60;99.90;;;;;;4998832;28;20045;-82
2022/03/02 05:31:24;;;;;;;4.60;2.55;;;5.70;99.90;;;;;;4999196;28;20032;-82
2022/03/02 05:33:54;;;;;;;16.55;5.50;;;5.70;99.90;;;;;;5015387;28;20037;-82
2022/03/02 05:36:21;;;;;;;13.82;5.40;;;5.70;99.90;;;;;;4999010;28;20033;-82
2022/03/02 05:38:47;;;;;;;9.55;3.55;;;5.80;99.90;;;;;;5018006;28;20414;-82
2022/03/02 05:41:14;;;;;;;6.90;3.80;;;5.80;99.90;;;;;;5036686;28;20026;-82
2022/03/02 05:43:43;;;;;;;7.47;3.28;;;5.80;99.90;;;;;;5036634;28;20175;-80
2022/03/02 05:46:10;;;;;;;8.18;3.65;;;5.90;99.90;;;;;;5018938;28;20030;-80
2022/03/02 05:48:37;;;;;;;11.25;5.03;;;5.90;99.90;;;;;;5018996;28;20104;-80
2022/03/02 05:51:04;;;;;;;11.00;4.30;;;6.00;99.90;;;;;;5002615;28;20032;-80
2022/03/02 05:53:30;;;;;;;9.98;3.35;;;6.00;99.90;;;;;;5002494;28;20021;-80
2022/03/02 05:55:57;;;;;;;9.00;4.45;;;6.00;99.90;;;;;;5002524;28;20466;-82
2022/03/02 05:58:25;;;;;;;8.10;3.60;;;6.10;99.90;;;;;;5018718;28;20029;-82
2022/03/02 06:00:52;;;;;;;11.93;4.20;;;6.10;99.90;;;;;;5002503;28;20029;-82
2022/03/02 06:03:20;;;;;;;13.65;3.28;;;6.10;99.90;;;;;;5002353;28;20033;-82
2022/03/02 06:05:49;;;;;;;7.47;2.95;;;6.20;99.90;;;;;;5018654;28;20038;-82
2022/03/02 06:08:16;;;;;;;5.68;3.65;;;6.20;99.90;;;;;;5002019;28;20449;-82
2022/03/02 06:10:46;;;;;;;6.00;2.72;;;6.20;99.90;;;;;;5002285;28;20054;-82
2022/03/02 06:13:13;;;;;;;9.40;3.72;;;6.20;99.90;;;;;;5002160;28;20030;-82
2022/03/02 06:15:40;;;;;;;10.40;3.58;;;6.30;99.90;;;;;;5018422;28;20032;-82
2022/03/02 06:18:07;;;;;;;8.27;4.18;;;6.30;99.90;;;;;;5001987;28;20048;-82
2022/03/02 06:20:35;;;;;;;8.90;4.35;;;6.30;99.90;;;;;;5018353;28;20048;-82
2022/03/02 06:23:02;;;;;;;8.35;3.63;;;6.30;99.90;;;;;;5018380;28;20116;-82
2022/03/02 06:25:29;;;;;;;9.68;3.35;;;6.40;99.90;;;;;;5018268;28;20030;-82
2022/03/02 06:27:56;;;;;;;8.43;2.72;;;6.50;99.90;;;;;;5001859;28;20456;-82
2022/03/02 06:30:23;;;;;;;15.93;3.53;;;6.50;99.90;;;;;;5018074;28;20025;-83
2022/03/02 06:32:49;;;;;;;11.88;3.88;;;6.50;99.90;;;;;;5018524;28;20064;-82
2022/03/02 06:35:16;;;;;;;5.22;2.95;;;6.60;99.90;;;;;;5018091;28;20474;-82
2022/03/02 06:37:46;;;;;;;6.60;2.55;;;6.70;99.90;;;;;;5017907;28;20117;-83
2022/03/02 06:40:13;;;;;;;6.40;2.58;;;6.80;99.90;;;;;;5001652;28;20025;-82
2022/03/02 06:43:07;;;;;;;7.57;3.05;;;6.90;99.90;;;;;;5001475;28;20107;-83
2022/03/02 06:45:59;;;;;;;6.63;2.90;;;6.90;99.90;;;;;;5035620;28;20042;-83
2022/03/02 06:48:43;;;;;;;10.00;3.03;;;6.90;99.90;;;;;;5009944;28;20040;-83
2022/03/02 06:51:14;;;;;;;10.13;3.65;;;6.90;99.90;;;;;;5035037;28;20033;-83
2022/03/02 06:53:44;;;;;;;8.68;3.55;;;6.80;99.90;;;;;;5001311;28;20037;-82
2022/03/02 06:56:17;;;;;;;8.30;3.15;;;6.90;99.90;;;;;;5017352;28;20117;-81
2022/03/02 06:58:53;;;;;;;9.38;3.85;;;6.80;99.90;;;;;;5017941;28;20040;-82
2022/03/02 07:01:33;;;;;;;8.07;3.35;;;6.90;99.90;;;;;;5001236;28;20079;-79
2022/03/02 07:04:01;;;;;;;5.25;2.95;;;6.90;99.90;;;;;;5000964;28;20394;-82
2022/03/02 07:06:29;;;;;;;12.93;3.55;;;7.00;99.90;;;;;;5001158;28;20025;-82
2022/03/02 07:08:56;;;;;;;6.93;3.58;;;7.10;99.90;;;;;;5000994;28;20113;-83
2022/03/02 07:11:23;;;;;;;11.10;3.88;;;7.20;99.90;;;;;;5001016;28;20022;-83
2022/03/02 07:13:51;;;;;;;7.88;4.15;;;7.30;99.90;;;;;;5001124;28;20489;-85
2022/03/02 07:16:21;;;;;;;6.75;2.67;;;7.50;99.90;;;;;;5001040;28;20069;-84
2022/03/02 07:18:48;;;;;;;5.35;2.35;;;7.70;99.90;;;;;;5002186;28;20082;-90
2022/03/02 07:21:16;;;;;;;3.17;1.70;;;8.00;99.90;;;;;;5002113;28;20022;-91
2022/03/02 07:24:06;;;;;;;6.90;3.53;;;8.20;99.90;;;;;;5001966;28;20176;-90
2022/03/02 07:26:35;;;;;;;6.10;2.92;;;8.20;99.90;;;;;;5002622;28;20041;-90
2022/03/02 07:29:02;;;;;;;6.25;3.42;;;8.20;99.90;;;;;;5001652;28;20036;-94
2022/03/02 07:31:29;;;;;;;10.82;4.38;;;8.10;99.90;;;;;;5001589;28;20034;-90
2022/03/02 07:34:02;;;;;;;8.38;2.92;;;8.10;99.90;;;;;;5001603;28;20017;-88
2022/03/02 07:36:31;;;;;;;6.57;2.63;;;8.20;99.90;;;;;;5001405;28;20056;-92
2022/03/02 07:38:57;;;;;;;7.93;3.47;;;8.30;99.90;;;;;;5001279;28;20022;-92
2022/03/02 07:41:23;;;;;;;5.80;2.58;;;8.30;99.90;;;;;;5001633;28;20029;-92
2022/03/02 07:43:50;;;;;;;4.53;2.25;;;8.30;99.90;;;;;;4993778;28;20038;-93
2022/03/02 07:46:16;;;;;;;12.80;2.70;;;8.40;99.90;;;;;;4981850;28;20041;-93
2022/03/02 07:48:44;;;;;;;5.38;2.08;;;8.50;99.90;;;;;;4982835;28;20034;-88
2022/03/02 07:51:10;;;;;;;9.07;2.20;;;8.50;99.90;;;;;;4988334;28;20036;-90
2022/03/02 07:53:44;;;;;;;3.72;2.42;;;8.60;99.90;;;;;;4987707;28;20482;-91
2022/03/02 07:56:11;;;;;;;6.38;2.35;;;8.60;99.90;;;;;;4982309;28;20026;-92
2022/03/02 07:58:41;;;;;;;9.85;2.40;;;8.60;99.90;;;;;;4981378;28;20030;-91
2022/03/02 08:01:12;;;;;;;5.90;2.63;;;8.70;99.90;;;;;;4981550;28;20045;-91
2022/03/02 08:03:39;;;;;;;4.20;2.50;;;8.80;99.90;;;;;;4981511;28;20076;-89
2022/03/02 08:06:06;;;;;;;6.72;2.30;;;8.80;99.90;;;;;;4981539;28;20030;-91
2022/03/02 08:08:36;;;;;;;6.80;2.47;;;8.90;99.90;;;;;;4981366;28;20498;-89
2022/03/02 08:11:04;;;;;;;7.25;2.53;;;8.90;99.90;;;;;;4981469;28;20030;-92
2022/03/02 08:13:33;;;;;;;4.65;2.22;;;9.00;99.90;;;;;;4981420;28;20089;-90
2022/03/02 08:15:59;;;;;;;3.85;2.15;;;9.10;99.90;;;;;;4981312;28;20034;-90
2022/03/02 08:18:27;;;;;;;6.45;2.75;;;9.20;99.90;;;;;;4981183;28;20022;-91
2022/03/02 08:20:56;;;;;;;2.97;1.80;;;9.40;99.90;;;;;;4981507;28;20030;-89
2022/03/02 08:23:29;;;;;;;3.38;1.92;;;9.40;99.90;;;;;;4981355;28;20451;-89
2022/03/02 08:25:55;;;;;;;7.25;2.40;;;9.40;99.90;;;;;;4981226;28;20125;-92
2022/03/02 08:28:23;;;;;;;4.35;2.22;;;9.40;99.90;;;;;;4980994;28;20040;-92
2022/03/02 08:30:52;;;;;;;4.65;2.22;;;9.30;99.90;;;;;;4981886;28;20077;-93
2022/03/02 08:33:29;;;;;;;5.18;2.47;;;9.20;99.90;;;;;;4981119;28;20030;-89
2022/03/02 08:35:57;;;;;;;5.63;2.00;;;9.20;99.90;;;;;;4980958;28;20038;-90
2022/03/02 08:38:25;;;;;;;4.20;2.30;;;9.40;99.90;;;;;;4981041;28;20021;-91
2022/03/02 08:40:52;;;;;;;7.55;2.65;;;9.40;99.90;;;;;;4980880;28;20482;-90
2022/03/02 08:43:19;;;;;;;8.13;2.30;;;9.40;99.90;;;;;;4983892;28;20129;-90
2022/03/02 08:45:50;;;;;;;5.38;2.35;;;9.30;99.90;;;;;;5000548;28;20045;-90
2022/03/02 08:48:19;;;;;;;4.40;2.30;;;9.30;99.90;;;;;;5017192;28;20029;-89
2022/03/02 08:50:50;;;;;;;6.53;2.15;;;9.20;99.90;;;;;;5000687;28;20029;-89
2022/03/02 08:53:17;;;;;;;6.20;2.35;;;9.10;99.90;;;;;;5000589;28;20026;-88
2022/03/02 08:55:44;;;;;;;1.52;1.42;;;9.00;99.90;;;;;;5000543;28;20100;-91
2022/03/02 08:58:12;;;;;;;2.88;2.05;;;9.00;99.90;;;;;;5000387;28;20030;-90
2022/03/02 09:00:39;;;;;;;6.00;1.90;;;9.00;99.90;;;;;;5000600;28;20021;-92
2022/03/02 09:03:06;;;;;;;4.57;2.78;;;9.10;99.90;;;;;;5000504;28;20029;-92
2022/03/02 09:05:34;;;;;;;3.95;2.17;;;9.20;99.90;;;;;;5001594;28;20032;-93
2022/03/02 09:08:01;;;;;;;7.13;3.53;;;9.30;99.90;;;;;;5000057;28;20044;-92
2022/03/02 09:10:29;;;;;;;2.75;2.13;;;9.30;99.90;;;;;;5006960;28;20036;-91
2022/03/02 09:12:56;;;;;;;5.25;2.22;;;9.40;99.90;;;;;;5004367;28;20374;-91
2022/03/02 09:15:22;;;;;;;5.10;1.75;;;9.40;99.90;;;;;;5002779;28;20029;-90
2022/03/02 09:17:49;;;;;;;3.63;1.92;;;9.50;99.90;;;;;;5005501;28;20025;-92
2022/03/02 09:20:15;;;;;;;4.70;2.50;;;9.50;99.90;;;;;;5023242;28;20025;-90
2022/03/02 09:22:42;;;;;;;5.53;2.45;;;9.60;99.90;;;;;;5023110;28;20029;-91
2022/03/02 09:25:09;;;;;;;3.80;2.00;;;9.60;99.90;;;;;;5023580;28;20036;-92
2022/03/02 09:27:36;;;;;;;4.93;1.90;;;9.50;99.90;;;;;;5023339;28;20021;-93
2022/03/02 09:30:09;;;;;;;4.47;1.70;;;9.60;99.90;;;;;;5023446;28;20037;-90
2022/03/02 09:32:40;;;;;;;7.28;2.00;;;9.50;99.90;;;;;;5039878;28;20036;-90
2022/03/02 09:35:14;;;;;;;3.78;1.88;;;9.50;99.90;;;;;;5039973;28;20064;-92
2022/03/02 09:37:48;;;;;;;2.90;1.55;;;9.60;99.90;;;;;;5039800;28;20025;-92
2022/03/02 09:40:23;;;;;;;;;;;9.50;99.90;;;;;;5023798;28;20067;-91
2022/03/02 09:43:02;;;;;;;2.47;1.73;;;9.50;99.90;;;;;;5023452;28;19909;-91
2022/03/02 09:45:32;;;;;;;3.15;2.42;;;9.60;99.90;;;;;;5040672;28;20045;-93
2022/03/02 09:48:03;;;;;;;3.22;2.15;;;9.60;99.90;;;;;;5030076;28;20079;-91
2022/03/02 09:50:33;;;;;;;2.15;1.50;;;9.60;99.90;;;;;;5042798;28;20040;-91
2022/03/02 09:53:08;;;;;;;6.25;2.78;;;9.70;99.90;;;;;;5023134;28;20028;-90
2022/03/02 09:55:36;;;;;;;6.63;1.85;;;9.70;99.90;;;;;;5023109;28;20508;-93
2022/03/02 09:58:03;;;;;;;3.80;1.75;;;9.70;99.90;;;;;;5023139;28;20017;-90
2022/03/02 10:00:30;;;;;;;7.10;2.33;;;9.70;99.90;;;;;;5039466;28;20509;-91
2022/03/02 10:02:59;;;;;;;3.17;1.80;;;9.70;99.90;;;;;;5039415;28;20029;-93
2022/03/02 10:05:28;;;;;;;3.53;2.38;;;9.80;99.90;;;;;;5039354;28;20538;-91
2022/03/02 10:08:00;;;;;;;3.42;1.73;;;9.90;99.90;;;;;;5039254;28;20025;-90
2022/03/02 10:10:28;;;;;;;3.67;1.92;;;10.00;99.90;;;;;;5022798;28;20033;-90
2022/03/02 10:12:58;;;;;;;5.45;1.95;;;9.90;99.90;;;;;;5039282;28;20090;-92
2022/03/02 10:15:26;;;;;;;6.55;2.05;;;9.80;99.90;;;;;;5039271;28;20059;-92
2022/03/02 10:17:54;;;;;;;4.90;2.28;;;9.80;99.90;;;;;;5022893;28;20040;-90
2022/03/02 10:20:34;;;;;;;3.55;1.85;;;9.90;99.90;;;;;;5022884;28;20090;-89
2022/03/02 10:23:41;;;;;;;5.80;1.92;;;9.90;99.90;;;;;;5023529;28;20494;-93
2022/03/02 10:26:25;;;;;;;5.25;2.10;;;9.90;99.90;;;;;;5016375;28;20045;-92
2022/03/02 10:29:00;;;;;;;3.25;1.90;;;9.90;99.90;;;;;;5038819;28;20040;-91
2022/03/02 10:31:41;;;;;;;2.40;1.70;;;9.90;99.90;;;;;;5023122;28;20029;-92
2022/03/02 10:34:27;;;;;;;3.35;2.30;;;9.80;99.90;;;;;;5023491;28;20040;-93
2022/03/02 10:37:03;;;;;;;10.80;2.45;;;9.90;99.90;;;;;;5022730;28;20025;-92
2022/03/02 10:39:50;;;;;;;6.32;2.72;;;9.90;99.90;;;;;;5022151;28;20029;-92
2022/03/02 10:42:24;;;;;;;4.05;2.30;;;10.00;99.90;;;;;;5038630;28;20021;-93
2022/03/02 10:45:01;;;;;;;5.15;2.28;;;10.00;99.90;;;;;;5038423;28;20049;-92
2022/03/02 10:47:29;;;;;;;6.70;3.47;;;9.90;99.90;;;;;;5038638;28;20459;-92
2022/03/02 10:50:01;;;;;;;6.80;2.63;;;9.90;99.90;;;;;;5022496;28;20037;-92
2022/03/02 10:52:29;;;;;;;4.88;2.58;;;10.00;99.90;;;;;;5022412;28;20021;-91
2022/03/02 10:54:57;;;;;;;4.88;2.28;;;10.10;99.90;;;;;;5038477;28;20493;-92
2022/03/02 10:57:31;;;;;;;4.85;2.42;;;10.30;99.90;;;;;;5024079;28;20033;-91
2022/03/02 11:00:09;;;;;;;5.93;2.58;;;10.40;99.90;;;;;;5047895;28;20131;-92
2022/03/02 11:02:41;;;;;;;5.18;2.97;;;10.20;99.90;;;;;;5038600;28;20093;-92
2022/03/02 11:05:13;;;;;;;3.88;2.30;;;10.10;99.90;;;;;;5021708;28;20033;-92
2022/03/02 11:07:41;;;;;;;4.13;2.15;;;10.10;99.90;;;;;;5021208;28;20069;-94
2022/03/02 11:10:11;;;;;;;2.80;2.13;;;10.00;99.90;;;;;;5038109;28;20405;-92
2022/03/02 11:12:43;;;;;;;4.50;2.53;;;9.90;99.90;;;;;;5021550;28;20082;-93
2022/03/02 11:15:11;;;;;;;10.07;3.65;;;10.00;99.90;;;;;;5038050;28;20029;-92
2022/03/02 11:17:51;;;;;;;7.45;3.42;;;10.20;99.90;;;;;;5038049;28;20027;-93
2022/03/02 11:20:17;;;;;;;12.15;3.92;;;10.20;99.90;;;;;;5037926;28;20206;-94
2022/03/02 11:22:55;;;;;;;9.75;3.90;;;10.10;99.90;;;;;;5031366;28;20037;-90
2022/03/02 11:25:44;;;;;;;5.10;2.08;;;10.10;99.90;;;;;;4987338;28;20080;-89
2022/03/02 11:28:20;;;;;;;9.40;3.42;;;10.00;99.90;;;;;;4987325;28;20033;-93
2022/03/02 11:31:13;;;;;;;7.68;2.97;;;10.00;99.90;;;;;;4988510;28;20025;-92
2022/03/02 11:33:39;;;;;;;3.50;2.53;;;10.00;99.90;;;;;;4993894;28;20045;-89
2022/03/02 11:36:10;;;;;;;4.78;2.53;;;10.10;99.90;;;;;;4990692;28;20116;-92
2022/03/02 11:38:41;;;;;;;6.57;2.47;;;10.20;99.90;;;;;;4998708;28;20036;-93
2022/03/02 11:41:11;;;;;;;3.88;2.25;;;10.40;99.90;;;;;;4993286;28;20029;-93
2022/03/02 11:43:37;;;;;;;4.05;2.40;;;10.40;99.90;;;;;;5002581;28;20046;-92
2022/03/02 11:46:09;;;;;;;7.32;3.10;;;10.20;99.90;;;;;;4977433;28;20022;-92
2022/03/02 11:48:41;;;;;;;4.53;2.42;;;10.40;99.90;;;;;;4980043;28;20034;-91
2022/03/02 11:51:27;;;;;;;5.57;2.45;;;10.50;99.90;;;;;;4979118;28;20121;-91
2022/03/02 11:53:59;;;;;;;6.15;3.25;;;10.40;99.90;;;;;;4976895;28;20097;-92
2022/03/02 11:57:07;;;;;;;20.02;6.82;;;10.10;99.90;;;;;;4990581;28;20019;-94
2022/03/02 11:59:29;;;;;;;6.22;3.35;;;10.10;99.90;;;;;;4994692;28;20125;-83
2022/03/02 12:01:55;;;;;;;6.45;2.97;;;10.30;99.90;;;;;;4971600;28;20101;-83
2022/03/02 12:04:21;;;;;;;7.63;2.95;;;10.30;99.90;;;;;;4970648;28;20061;-81
2022/03/02 12:06:51;;;;;;;15.52;3.13;;;10.20;99.90;;;;;;4969411;28;20036;-83
2022/03/02 12:09:35;;;;;;;5.40;2.85;;;10.20;99.90;;;;;;4968690;28;20038;-81
2022/03/02 12:12:21;;;;;;;13.52;2.67;;;10.20;99.90;;;;;;5019009;28;20383;-81
2022/03/02 12:15:01;;;;;;;10.60;3.17;;;10.10;99.90;;;;;;5001498;28;20430;-82
2022/03/02 12:17:33;;;;;;;6.55;2.70;;;9.90;99.90;;;;;;4986639;28;20033;-81
2022/03/02 12:20:14;;;;;;;4.97;2.58;;;9.80;99.90;;;;;;4986385;28;20026;-81
2022/03/02 12:22:47;;;;;;;7.05;3.60;;;9.80;99.90;;;;;;4986420;28;20026;-82
2022/03/02 12:25:17;;;;;;;7.47;2.92;;;9.90;99.90;;;;;;4969416;28;20471;-82
2022/03/02 12:27:58;;;;;;;4.63;2.65;;;9.90;99.90;;;;;;4984458;28;20030;-81
2022/03/02 12:30:27;;;;;;;4.05;2.38;;;9.90;99.90;;;;;;4968325;28;20404;-81
2022/03/02 12:32:54;;;;;;;5.95;2.42;;;9.90;99.90;;;;;;4976757;28;20018;-81
2022/03/02 12:35:24;;;;;;;6.28;2.88;;;10.00;99.90;;;;;;5003436;28;20041;-82
2022/03/02 12:37:52;;;;;;;6.75;2.60;;;10.00;99.90;;;;;;4967292;28;20509;-83
2022/03/02 12:40:19;;;;;;;3.92;2.47;;;10.10;99.90;;;;;;4986111;28;21329;-82
2022/03/02 12:42:47;;;;;;;8.18;2.58;;;10.30;99.90;;;;;;4985994;28;20026;-82
2022/03/02 12:45:14;;;;;;;4.72;2.63;;;10.40;99.90;;;;;;4985898;28;20060;-81
2022/03/02 12:47:41;;;;;;;6.40;2.78;;;10.30;99.90;;;;;;4967690;28;20499;-80
2022/03/02 12:50:10;;;;;;;13.75;5.20;;;10.20;99.90;;;;;;4986718;28;20450;-80
2022/03/02 12:52:38;;;;;;;12.55;4.90;;;10.20;99.90;;;;;;4984482;28;20084;-84
2022/03/02 12:55:05;;;;;;;13.10;3.47;;;10.20;99.90;;;;;;4986591;28;20427;-83
2022/03/02 12:57:33;;;;;;;9.75;3.75;;;10.10;99.90;;;;;;4969152;28;20030;-82
2022/03/02 13:00:01;;;;;;;4.53;2.65;;;10.10;99.90;;;;;;4970132;28;20026;-82
2022/03/02 13:02:33;;;;;;;7.47;3.30;;;10.10;99.90;;;;;;4964994;28;20483;-85
2022/03/02 13:05:13;;;;;;;6.40;3.10;;;10.20;99.90;;;;;;4986641;28;20030;-79
2022/03/02 13:08:06;;;;;;;5.28;2.63;;;10.20;99.90;;;;;;4986089;28;20046;-80